createdAt,value
2023-04-19T00:01:30.868Z,11.63
2023-04-19T00:03:58.254Z,11.63
2023-04-19T00:06:26.198Z,13.27
2023-04-19T00:08:52.956Z,9.27
2023-04-19T00:11:19.990Z,10.97
2023-04-19T00:13:46.843Z,9.97
2023-04-19T00:16:13.680Z,10.43
2023-04-19T00:18:40.771Z,12.07
2023-04-19T00:21:07.767Z,10.33
2023-04-19T00:23:35.034Z,13.67
2023-04-19T00:26:05.176Z,10.87
2023-04-19T00:28:32.120Z,12.47
2023-04-19T00:30:58.983Z,12.60
2023-04-19T00:33:25.870Z,11.03
2023-04-19T00:35:52.798Z,11.53
2023-04-19T00:38:19.618Z,11.70
2023-04-19T00:40:46.967Z,13.93
2023-04-19T00:43:20.255Z,10.40
2023-04-19T00:45:48.436Z,11.97
2023-04-19T00:48:15.926Z,9.43
2023-04-19T00:50:44.907Z,15.40
2023-04-19T00:53:11.947Z,9.70
2023-04-19T00:55:39.645Z,13.50
2023-04-19T00:58:09.697Z,9.40
2023-04-19T01:00:37.839Z,11.40
2023-04-19T01:03:05.142Z,12.80
2023-04-19T01:05:32.132Z,10.77
2023-04-19T01:07:58.965Z,11.77
2023-04-19T01:10:26.057Z,12.30
2023-04-19T01:12:52.958Z,12.57
2023-04-19T01:15:20.033Z,12.50
2023-04-19T01:17:46.890Z,11.30
2023-04-19T01:20:13.782Z,14.77
2023-04-19T01:22:40.705Z,10.67
2023-04-19T01:25:08.737Z,10.17
2023-04-19T01:27:35.745Z,12.77
2023-04-19T01:30:02.763Z,12.53
2023-04-19T01:32:29.734Z,13.20
2023-04-19T01:34:56.586Z,11.73
2023-04-19T01:37:23.527Z,10.13
2023-04-19T01:39:50.397Z,11.90
2023-04-19T01:42:17.201Z,12.37
2023-04-19T01:44:43.957Z,11.00
2023-04-19T01:47:11.008Z,13.67
2023-04-19T01:49:37.948Z,11.87
2023-04-19T01:52:04.888Z,11.03
2023-04-19T01:54:31.780Z,12.63
2023-04-19T01:56:58.595Z,14.27
2023-04-19T01:59:25.538Z,13.80
2023-04-19T02:01:52.538Z,13.87
2023-04-19T02:04:22.115Z,13.03
2023-04-19T02:06:49.075Z,14.00
2023-04-19T02:09:16.382Z,11.30
2023-04-19T02:11:43.192Z,11.53
2023-04-19T02:14:10.072Z,13.00
2023-04-19T02:16:36.945Z,14.30
2023-04-19T02:19:04.579Z,10.73
2023-04-19T02:21:31.998Z,12.80
2023-04-19T02:23:58.844Z,10.03
2023-04-19T02:26:25.685Z,12.23
2023-04-19T02:28:53.179Z,12.67
2023-04-19T02:31:20.374Z,11.47
2023-04-19T02:33:47.255Z,12.43
2023-04-19T02:36:14.076Z,13.93
2023-04-19T02:38:41.657Z,12.07
2023-04-19T02:41:08.464Z,11.17
2023-04-19T02:43:35.377Z,12.03
2023-04-19T02:46:02.508Z,10.90
2023-04-19T02:48:29.557Z,11.30
2023-04-19T02:50:56.627Z,11.13
2023-04-19T02:53:23.544Z,13.67
2023-04-19T02:55:50.839Z,13.90
2023-04-19T02:58:17.709Z,11.67
2023-04-19T03:00:44.555Z,10.47
2023-04-19T03:03:11.547Z,10.53
2023-04-19T03:05:38.578Z,10.30
2023-04-19T03:08:05.674Z,9.30
2023-04-19T03:10:32.449Z,11.50
2023-04-19T03:12:59.224Z,12.77
2023-04-19T03:15:26.368Z,14.17
2023-04-19T03:17:53.265Z,12.30
2023-04-19T03:20:20.958Z,10.73
2023-04-19T03:22:48.001Z,11.90
2023-04-19T03:25:14.875Z,15.50
2023-04-19T03:27:41.761Z,11.97
2023-04-19T03:30:09.152Z,18.10
2023-04-19T03:32:36.109Z,11.83
2023-04-19T03:35:03.568Z,11.27
2023-04-19T03:37:30.462Z,10.70
2023-04-19T03:39:57.296Z,11.97
2023-04-19T03:42:24.123Z,10.17
2023-04-19T03:44:50.983Z,11.27
2023-04-19T03:47:17.827Z,12.07
2023-04-19T03:49:44.691Z,11.73
2023-04-19T03:52:11.609Z,9.83
2023-04-19T03:54:38.460Z,11.70
2023-04-19T03:57:05.940Z,10.47
2023-04-19T03:59:32.810Z,9.90
2023-04-19T04:01:59.878Z,11.93
2023-04-19T04:04:27.087Z,9.93
2023-04-19T04:06:54.182Z,9.53
2023-04-19T04:09:20.963Z,12.07
2023-04-19T04:11:47.810Z,9.80
2023-04-19T04:14:14.794Z,11.57
2023-04-19T04:16:41.840Z,12.87
2023-04-19T04:19:08.715Z,9.30
2023-04-19T04:21:35.662Z,8.27
2023-04-19T04:24:03.498Z,9.80
2023-04-19T04:26:30.881Z,7.20
2023-04-19T04:28:57.919Z,9.23
2023-04-19T04:31:24.781Z,9.43
2023-04-19T04:33:53.218Z,7.23
2023-04-19T04:36:20.547Z,9.63
2023-04-19T04:38:47.662Z,8.93
2023-04-19T04:41:14.439Z,9.10
2023-04-19T04:43:41.555Z,10.70
2023-04-19T04:46:09.096Z,7.43
2023-04-19T04:48:36.039Z,11.33
2023-04-19T04:51:02.890Z,9.03
2023-04-19T04:53:29.688Z,8.10
2023-04-19T04:55:56.499Z,7.90
2023-04-19T04:58:23.326Z,7.40
2023-04-19T05:00:50.297Z,8.57
2023-04-19T05:03:17.265Z,8.43
2023-04-19T05:05:45.236Z,9.30
2023-04-19T05:08:12.459Z,8.30
2023-04-19T05:10:39.311Z,10.13
2023-04-19T05:13:06.133Z,9.10
2023-04-19T05:15:32.975Z,9.97
2023-04-19T05:17:59.855Z,8.47
2023-04-19T05:20:26.726Z,9.30
2023-04-19T05:23:03.559Z,8.60
2023-04-19T05:25:30.380Z,8.13
2023-04-19T05:27:58.045Z,11.47
2023-04-19T05:30:25.006Z,8.80
2023-04-19T05:32:52.814Z,9.33
2023-04-19T05:35:20.169Z,8.57
2023-04-19T05:37:47.050Z,8.10
2023-04-19T05:40:13.857Z,10.23
2023-04-19T05:42:40.783Z,11.27
2023-04-19T05:45:08.303Z,9.10
2023-04-19T05:47:35.254Z,8.07
2023-04-19T05:50:02.825Z,8.60
2023-04-19T05:52:29.711Z,7.27
2023-04-19T05:54:56.685Z,7.50
2023-04-19T05:57:23.453Z,7.80
2023-04-19T05:59:50.248Z,9.97
2023-04-19T06:02:17.246Z,7.80
2023-04-19T06:04:44.540Z,5.73
2023-04-19T06:07:26.536Z,7.53
2023-04-19T06:09:57.609Z,6.37
2023-04-19T06:12:24.530Z,6.37
2023-04-19T06:14:52.226Z,7.40
2023-04-19T06:17:24.514Z,7.23
2023-04-19T06:19:52.143Z,6.53
2023-04-19T06:22:19.116Z,6.97
2023-04-19T06:24:46.478Z,5.80
2023-04-19T06:27:13.627Z,5.60
2023-04-19T06:29:40.490Z,7.13
2023-04-19T06:32:07.474Z,7.20
2023-04-19T06:34:34.531Z,6.43
2023-04-19T06:37:01.440Z,5.57
2023-04-19T06:39:28.669Z,5.87
2023-04-19T06:41:55.652Z,7.20
2023-04-19T06:44:22.442Z,7.00
2023-04-19T06:46:49.256Z,4.63
2023-04-19T06:49:16.211Z,6.47
2023-04-19T06:51:43.014Z,6.50
2023-04-19T06:54:09.908Z,5.33
2023-04-19T06:56:47.463Z,7.80
2023-04-19T06:59:16.704Z,6.23
2023-04-19T07:01:44.365Z,7.63
2023-04-19T07:04:11.991Z,5.60
2023-04-19T07:06:39.624Z,5.33
2023-04-19T07:09:07.451Z,6.00
2023-04-19T07:11:34.649Z,6.70
2023-04-19T07:14:01.627Z,5.53
2023-04-19T07:16:29.037Z,4.47
2023-04-19T07:18:56.244Z,8.90
2023-04-19T07:21:25.259Z,6.63
2023-04-19T07:23:52.296Z,7.10
2023-04-19T07:26:19.066Z,5.83
2023-04-19T07:28:45.942Z,6.10
2023-04-19T07:31:16.937Z,5.53
2023-04-19T07:33:44.081Z,5.30
2023-04-19T07:36:11.565Z,6.07
2023-04-19T07:38:38.775Z,6.10
2023-04-19T07:41:06.521Z,5.90
2023-04-19T07:43:33.826Z,9.43
2023-04-19T07:46:01.041Z,5.67
2023-04-19T07:48:28.058Z,6.87
2023-04-19T07:50:54.893Z,5.57
2023-04-19T07:53:21.836Z,6.07
2023-04-19T07:55:48.760Z,6.93
2023-04-19T07:58:15.701Z,8.77
2023-04-19T08:00:42.571Z,5.33
2023-04-19T08:03:09.630Z,4.53
2023-04-19T08:05:36.732Z,5.00
2023-04-19T08:08:03.626Z,6.43
2023-04-19T08:10:31.521Z,5.97
2023-04-19T08:13:05.811Z,4.43
2023-04-19T08:18:06.452Z,7.70
2023-04-19T08:20:33.975Z,7.77
2023-04-19T08:23:10.341Z,7.63
2023-04-19T08:25:41.453Z,4.93
2023-04-19T08:28:08.273Z,6.83
2023-04-19T08:30:35.263Z,5.87
2023-04-19T08:33:02.641Z,5.17
2023-04-19T08:35:29.677Z,6.97
2023-04-19T08:37:56.581Z,4.13
2023-04-19T08:40:23.958Z,5.37
2023-04-19T08:42:51.759Z,5.53
2023-04-19T08:48:00.973Z,4.90
2023-04-19T08:50:34.528Z,4.17
2023-04-19T08:53:23.793Z,4.13
2023-04-19T08:56:08.750Z,5.47
2023-04-19T08:59:00.528Z,8.57
2023-04-19T09:01:34.947Z,3.97
2023-04-19T09:04:21.673Z,3.90
2023-04-19T09:06:53.316Z,4.17
2023-04-19T09:09:38.761Z,3.67
2023-04-19T09:12:18.480Z,4.90
2023-04-19T09:15:01.130Z,3.93
2023-04-19T09:17:28.568Z,3.13
2023-04-19T09:19:55.818Z,4.87
2023-04-19T09:22:22.699Z,4.57
2023-04-19T09:27:34.059Z,3.40
2023-04-19T09:30:02.345Z,4.70
2023-04-19T09:32:44.173Z,5.93
2023-04-19T09:35:11.166Z,3.60
2023-04-19T09:38:04.191Z,3.57
2023-04-19T09:40:28.603Z,4.73
2023-04-19T09:43:08.615Z,3.57
2023-04-19T09:45:47.284Z,3.73
2023-04-19T09:48:14.343Z,4.80
2023-04-19T09:51:03.185Z,5.20
2023-04-19T09:53:35.230Z,5.83
2023-04-19T09:56:03.522Z,4.20
2023-04-19T10:01:11.198Z,3.13
2023-04-19T10:03:43.233Z,2.43
2023-04-19T10:06:14.713Z,2.33
2023-04-19T10:08:55.924Z,2.90
2023-04-19T10:11:25.220Z,4.97
2023-04-19T10:13:56.319Z,3.20
2023-04-19T10:16:23.532Z,4.20
2023-04-19T10:18:52.463Z,4.07
2023-04-19T10:21:21.047Z,2.57
2023-04-19T10:23:48.456Z,3.13
2023-04-19T10:26:15.361Z,2.23
2023-04-19T10:28:42.713Z,1.80
2023-04-19T10:31:15.387Z,2.20
2023-04-19T10:33:42.565Z,1.63
2023-04-19T10:36:11.747Z,2.23
2023-04-19T10:38:40.610Z,1.70
2023-04-19T10:41:18.303Z,2.57
2023-04-19T10:43:47.807Z,1.20
2023-04-19T10:46:16.458Z,2.00
2023-04-19T10:49:00.730Z,3.23
2023-04-19T10:51:39.092Z,4.87
2023-04-19T10:54:31.909Z,1.70
2023-04-19T10:57:11.689Z,1.70
2023-04-19T10:59:40.621Z,2.17
2023-04-19T11:02:32.656Z,3.57
2023-04-19T11:05:01.274Z,5.03
2023-04-19T11:07:28.395Z,2.90
2023-04-19T11:09:55.555Z,3.60
2023-04-19T11:12:22.885Z,2.50
2023-04-19T11:14:54.081Z,3.23
2023-04-19T11:17:27.804Z,2.93
2023-04-19T11:19:58.611Z,3.37
2023-04-19T11:22:32.866Z,4.00
2023-04-19T11:25:12.426Z,2.37
2023-04-19T11:27:41.181Z,3.20
2023-04-19T11:30:10.529Z,4.10
2023-04-19T11:32:38.346Z,3.23
2023-04-19T11:35:10.002Z,1.93
2023-04-19T11:37:38.528Z,2.13
2023-04-19T11:40:07.304Z,2.83
2023-04-19T11:42:34.395Z,3.17
2023-04-19T11:45:01.620Z,2.00
2023-04-19T11:47:28.782Z,3.20
2023-04-19T11:49:56.655Z,3.50
2023-04-19T11:52:26.236Z,3.63
2023-04-19T11:54:54.184Z,2.77
2023-04-19T11:57:31.264Z,2.43
2023-04-19T12:00:07.862Z,4.17
2023-04-19T12:02:39.240Z,4.90
2023-04-19T12:05:14.941Z,2.17
2023-04-19T12:08:01.179Z,3.10
2023-04-19T12:10:28.071Z,3.43
2023-04-19T12:12:54.984Z,6.43
2023-04-19T12:15:24.513Z,2.53
2023-04-19T12:18:02.878Z,6.17
2023-04-19T12:20:35.424Z,4.23
2023-04-19T12:23:03.678Z,4.50
2023-04-19T12:25:33.236Z,3.17
2023-04-19T12:28:04.268Z,3.83
2023-04-19T12:30:31.204Z,3.73
2023-04-19T12:32:59.465Z,2.50
2023-04-19T12:35:27.705Z,2.50
2023-04-19T12:37:56.388Z,4.50
2023-04-19T12:40:24.101Z,2.87
2023-04-19T12:42:51.581Z,2.77
2023-04-19T12:45:20.005Z,2.53
2023-04-19T12:47:48.313Z,4.87
2023-04-19T12:50:16.274Z,1.90
2023-04-19T12:52:44.886Z,2.27
2023-04-19T12:55:11.910Z,2.00
2023-04-19T12:57:38.724Z,3.53
2023-04-19T13:00:07.464Z,2.47
2023-04-19T13:02:35.284Z,3.13
2023-04-19T13:05:03.826Z,3.20
2023-04-19T13:07:31.453Z,3.00
2023-04-19T13:09:58.348Z,2.27
2023-04-19T13:12:25.382Z,3.73
2023-04-19T13:14:52.809Z,4.40
2023-04-19T13:17:20.541Z,2.10
2023-04-19T13:19:47.740Z,3.43
2023-04-19T13:22:15.547Z,3.47
2023-04-19T13:24:42.508Z,3.10
2023-04-19T13:27:09.683Z,3.40
2023-04-19T13:29:36.831Z,2.00
2023-04-19T13:32:07.298Z,2.00
2023-04-19T13:34:35.059Z,3.97
2023-04-19T13:37:01.932Z,3.10
2023-04-19T13:39:28.945Z,2.77
2023-04-19T13:41:55.933Z,3.10
2023-04-19T13:44:23.083Z,4.73
2023-04-19T13:46:50.090Z,2.47
2023-04-19T13:49:18.512Z,3.07
2023-04-19T13:51:50.049Z,4.03
2023-04-19T13:54:18.551Z,4.00
2023-04-19T13:56:46.538Z,2.57
2023-04-19T13:59:13.381Z,4.70
2023-04-19T14:01:41.039Z,3.07
2023-04-19T14:04:08.151Z,4.57
2023-04-19T14:06:35.390Z,3.93
2023-04-19T14:09:02.234Z,3.83
2023-04-19T14:11:29.217Z,6.03
2023-04-19T14:13:56.422Z,3.23
2023-04-19T14:16:25.486Z,4.40
2023-04-19T14:18:52.768Z,3.70
2023-04-19T14:21:19.893Z,3.33
2023-04-19T14:23:46.836Z,4.10
2023-04-19T14:26:14.287Z,3.23
2023-04-19T14:28:41.159Z,4.07
2023-04-19T14:31:08.033Z,4.70
2023-04-19T14:33:34.916Z,2.37
2023-04-19T14:36:01.913Z,4.63
2023-04-19T14:38:28.845Z,4.10
2023-04-19T14:40:57.168Z,3.20
2023-04-19T14:43:24.098Z,4.27
2023-04-19T14:45:51.983Z,3.23
2023-04-19T14:48:21.406Z,4.40
2023-04-19T14:50:49.409Z,3.50
2023-04-19T14:53:16.342Z,2.97
2023-04-19T14:55:43.346Z,2.73
2023-04-19T14:58:10.275Z,2.97
2023-04-19T15:00:37.119Z,6.30
2023-04-19T15:03:04.205Z,2.93
2023-04-19T15:05:34.518Z,4.50
2023-04-19T15:08:01.445Z,3.67
2023-04-19T15:10:28.362Z,4.43
2023-04-19T15:12:55.784Z,4.47
2023-04-19T15:15:22.743Z,4.37
2023-04-19T15:17:49.734Z,2.60
2023-04-19T15:20:16.740Z,4.87
2023-04-19T15:22:43.684Z,2.77
2023-04-19T15:25:10.800Z,5.30
2023-04-19T15:27:37.814Z,5.33
2023-04-19T15:30:05.778Z,3.33
2023-04-19T15:32:34.414Z,3.23
2023-04-19T15:35:01.408Z,2.70
2023-04-19T15:37:28.261Z,3.67
2023-04-19T15:39:55.187Z,4.23
2023-04-19T15:42:22.151Z,2.93
2023-04-19T15:44:48.976Z,4.27
2023-04-19T15:47:15.954Z,4.17
2023-04-19T15:49:42.955Z,3.23
2023-04-19T15:52:09.862Z,4.87
2023-04-19T15:54:37.809Z,6.43
2023-04-19T15:57:04.929Z,3.30
2023-04-19T15:59:31.873Z,3.73
2023-04-19T16:01:58.860Z,3.57
2023-04-19T16:04:25.998Z,3.50
2023-04-19T16:06:52.806Z,4.17
2023-04-19T16:09:19.680Z,3.30
2023-04-19T16:11:46.665Z,7.07
2023-04-19T16:14:13.453Z,2.93
2023-04-19T16:16:40.578Z,4.57
2023-04-19T16:19:07.526Z,4.03
2023-04-19T16:21:34.393Z,7.77
2023-04-19T16:24:01.267Z,6.57
2023-04-19T16:26:28.411Z,2.53
2023-04-19T16:28:55.293Z,3.07
2023-04-19T16:31:22.166Z,3.67
2023-04-19T16:33:49.043Z,2.93
2023-04-19T16:36:16.254Z,2.77
2023-04-19T16:38:43.122Z,3.73
2023-04-19T16:41:11.571Z,4.47
2023-04-19T16:43:38.443Z,2.90
2023-04-19T16:46:07.304Z,3.17
2023-04-19T16:48:34.360Z,4.80
2023-04-19T16:51:01.207Z,3.53
2023-04-19T16:53:28.049Z,4.60
2023-04-19T16:55:56.478Z,3.33
2023-04-19T16:58:23.733Z,4.33
2023-04-19T17:00:50.787Z,4.60
2023-04-19T17:03:17.736Z,3.03
2023-04-19T17:05:44.615Z,3.83
2023-04-19T17:08:12.177Z,5.30
2023-04-19T17:10:39.183Z,2.83
2023-04-19T17:13:06.141Z,4.07
2023-04-19T17:15:33.007Z,3.07
2023-04-19T17:18:00.029Z,2.60
2023-04-19T17:20:26.903Z,6.40
2023-04-19T17:22:53.645Z,7.73
2023-04-19T17:25:22.223Z,4.00
2023-04-19T17:27:49.359Z,2.40
2023-04-19T17:30:16.269Z,4.70
2023-04-19T17:32:43.227Z,2.60
2023-04-19T17:35:10.218Z,2.67
2023-04-19T17:37:37.368Z,4.60
2023-04-19T17:40:04.901Z,2.17
2023-04-19T17:42:31.777Z,2.70
2023-04-19T17:45:00.191Z,3.30
2023-04-19T17:47:27.529Z,3.13
2023-04-19T17:50:08.762Z,3.20
2023-04-19T17:52:36.009Z,4.10
2023-04-19T17:55:04.578Z,2.57
2023-04-19T17:57:33.757Z,3.00
2023-04-19T18:00:06.400Z,2.53
2023-04-19T18:02:33.874Z,2.27
2023-04-19T18:05:00.951Z,2.90
2023-04-19T18:07:27.832Z,3.23
2023-04-19T18:09:54.756Z,2.87
2023-04-19T18:12:21.583Z,3.70
2023-04-19T18:14:48.459Z,2.63
2023-04-19T18:17:15.497Z,2.40
2023-04-19T18:19:42.400Z,4.63
2023-04-19T18:22:09.326Z,2.23
2023-04-19T18:24:36.273Z,8.30
2023-04-19T18:27:03.405Z,1.90
2023-04-19T18:29:30.321Z,3.93
2023-04-19T18:31:57.266Z,3.63
2023-04-19T18:34:24.242Z,2.87
2023-04-19T18:36:59.056Z,5.07
2023-04-19T18:39:26.230Z,4.40
2023-04-19T18:41:53.338Z,4.03
2023-04-19T18:44:44.201Z,3.47
2023-04-19T18:47:07.210Z,2.33
2023-04-19T18:49:34.256Z,4.13
2023-04-19T18:52:01.083Z,3.37
2023-04-19T18:54:27.944Z,2.40
2023-04-19T18:59:24.898Z,2.40
2023-04-19T19:01:52.551Z,2.60
2023-04-19T19:04:42.973Z,3.70
2023-04-19T19:07:22.655Z,2.37
2023-04-19T19:09:56.542Z,2.57
2023-04-19T19:12:23.514Z,4.63
2023-04-19T19:14:50.408Z,2.40
2023-04-19T19:17:17.284Z,3.43
2023-04-19T19:19:44.311Z,2.13
2023-04-19T19:22:25.066Z,2.50
2023-04-19T19:24:54.274Z,3.40
2023-04-19T19:27:21.434Z,2.77
2023-04-19T19:29:48.308Z,2.83
2023-04-19T19:32:15.244Z,4.37
2023-04-19T19:34:53.753Z,2.40
2023-04-19T19:37:22.180Z,3.40
2023-04-19T19:39:49.617Z,2.50
2023-04-19T19:42:17.545Z,2.50
2023-04-19T19:44:44.774Z,3.27
2023-04-19T19:47:12.597Z,4.03
2023-04-19T19:52:09.336Z,4.40
2023-04-19T19:54:36.445Z,2.53
2023-04-19T19:59:34.839Z,5.90
2023-04-19T20:02:03.683Z,4.73
2023-04-19T20:04:32.132Z,4.50
2023-04-19T20:09:28.952Z,3.87
2023-04-19T20:11:55.755Z,3.10
2023-04-19T20:14:23.979Z,7.10
2023-04-19T20:16:51.973Z,2.60
2023-04-19T20:19:19.649Z,3.40
2023-04-19T20:21:49.202Z,3.80
2023-04-19T20:24:16.032Z,4.63
2023-04-19T20:26:42.962Z,7.20
2023-04-19T20:29:09.734Z,6.03
2023-04-19T20:31:36.530Z,4.27
2023-04-19T20:34:04.248Z,3.13
2023-04-19T20:36:31.812Z,4.70
2023-04-19T20:38:58.937Z,5.83
2023-04-19T20:41:27.134Z,2.93
2023-04-19T20:43:57.031Z,5.87
2023-04-19T20:46:23.915Z,4.17
2023-04-19T20:48:50.956Z,2.70
2023-04-19T20:51:18.007Z,3.27
2023-04-19T20:53:44.939Z,5.30
2023-04-19T20:56:11.800Z,5.10
2023-04-19T20:58:39.501Z,4.23
2023-04-19T21:01:06.599Z,7.47
2023-04-19T21:03:33.970Z,5.43
2023-04-19T21:06:01.087Z,4.97
2023-04-19T21:08:27.928Z,6.07
2023-04-19T21:10:54.890Z,4.47
2023-04-19T21:13:21.674Z,5.73
2023-04-19T21:15:48.532Z,3.60
2023-04-19T21:18:15.501Z,7.07
2023-04-19T21:20:42.322Z,5.47
2023-04-19T21:23:10.029Z,4.30
2023-04-19T21:25:37.087Z,4.30
2023-04-19T21:28:04.231Z,3.23
2023-04-19T21:30:31.652Z,2.97
2023-04-19T21:32:58.548Z,6.53
2023-04-19T21:35:25.401Z,3.33
2023-04-19T21:37:52.207Z,4.30
2023-04-19T21:40:19.056Z,5.07
2023-04-19T21:42:45.964Z,4.43
2023-04-19T21:45:12.888Z,4.07
2023-04-19T21:47:40.012Z,4.07
2023-04-19T21:50:07.674Z,3.77
2023-04-19T21:52:34.590Z,3.97
2023-04-19T21:55:01.401Z,5.83
2023-04-19T21:57:28.368Z,3.50
2023-04-19T21:59:55.421Z,2.93
2023-04-19T22:02:22.358Z,3.57
2023-04-19T22:04:50.004Z,3.53
2023-04-19T22:07:19.552Z,3.30
2023-04-19T22:09:46.603Z,3.00
2023-04-19T22:12:13.651Z,3.40
2023-04-19T22:14:40.847Z,5.27
2023-04-19T22:17:09.060Z,6.57
2023-04-19T22:19:35.969Z,5.37
2023-04-19T22:22:02.909Z,5.40
2023-04-19T22:24:29.719Z,5.43
2023-04-19T22:26:57.486Z,2.80
2023-04-19T22:29:24.387Z,2.67
2023-04-19T22:31:51.190Z,3.83
2023-04-19T22:34:18.067Z,5.70
2023-04-19T22:36:45.325Z,3.07
2023-04-19T22:39:12.414Z,3.97
2023-04-19T22:41:39.324Z,2.37
2023-04-19T22:44:06.248Z,7.03
2023-04-19T22:46:33.334Z,4.13
2023-04-19T22:49:00.858Z,3.23
2023-04-19T22:51:27.910Z,6.20
2023-04-19T22:53:55.063Z,3.60
2023-04-19T22:56:22.171Z,6.00
2023-04-19T22:58:49.047Z,3.90
2023-04-19T23:01:16.005Z,4.97
2023-04-19T23:03:42.917Z,2.43
2023-04-19T23:06:09.738Z,3.53
2023-04-19T23:08:36.662Z,5.53
2023-04-19T23:11:03.548Z,5.33
2023-04-19T23:13:30.437Z,4.27
2023-04-19T23:15:57.330Z,3.60
2023-04-19T23:18:24.188Z,4.40
2023-04-19T23:20:51.423Z,3.03
2023-04-19T23:23:20.272Z,3.67
2023-04-19T23:25:47.089Z,5.07
2023-04-19T23:28:13.930Z,7.17
2023-04-19T23:30:41.221Z,4.90
2023-04-19T23:33:08.118Z,4.03
2023-04-19T23:35:34.963Z,3.00
2023-04-19T23:38:01.896Z,2.83
2023-04-19T23:40:28.754Z,2.60
2023-04-19T23:42:55.827Z,3.23
2023-04-19T23:45:22.943Z,2.53
2023-04-19T23:47:50.529Z,2.27
2023-04-19T23:50:17.433Z,3.07
2023-04-19T23:52:44.168Z,3.37
2023-04-19T23:55:11.156Z,3.50
2023-04-19T23:57:38.099Z,3.27
